createdAt,value
2023-02-21T00:02:03.809Z,13.89
2023-02-21T00:04:49.420Z,13.67
2023-02-21T00:07:35.166Z,14.14
2023-02-21T00:10:22.698Z,13.80
2023-02-21T00:13:08.577Z,13.78
2023-02-21T00:15:54.449Z,13.61
2023-02-21T00:18:40.693Z,13.49
2023-02-21T00:21:26.548Z,13.32
2023-02-21T00:24:12.186Z,13.86
2023-02-21T00:26:59.489Z,13.86
2023-02-21T00:29:45.550Z,13.38
2023-02-21T00:32:31.657Z,13.39
2023-02-21T00:35:17.721Z,13.62
2023-02-21T00:38:03.684Z,13.58
2023-02-21T00:40:49.796Z,13.61
2023-02-21T00:43:36.849Z,13.87
2023-02-21T00:46:22.822Z,12.97
2023-02-21T00:49:08.667Z,13.36
2023-02-21T00:51:54.625Z,13.35
2023-02-21T00:54:40.616Z,13.33
2023-02-21T00:57:26.231Z,13.81
2023-02-21T01:00:13.443Z,13.43
2023-02-21T01:03:00.109Z,13.15
2023-02-21T01:05:45.859Z,12.69
2023-02-21T01:08:31.828Z,13.47
2023-02-21T01:11:17.864Z,13.42
2023-02-21T01:14:03.610Z,13.22
2023-02-21T01:16:51.425Z,13.31
2023-02-21T01:19:37.810Z,13.28
2023-02-21T01:22:23.936Z,13.34
2023-02-21T01:25:09.897Z,13.76
2023-02-21T01:27:56.209Z,13.46
2023-02-21T01:30:42.301Z,13.60
2023-02-21T01:33:29.645Z,13.04
2023-02-21T01:36:15.391Z,13.20
2023-02-21T01:39:01.445Z,13.34
2023-02-21T01:41:47.379Z,13.25
2023-02-21T01:44:50.395Z,12.83
2023-02-21T01:47:36.294Z,13.05
2023-02-21T01:50:31.915Z,12.77
2023-02-21T01:53:18.403Z,12.91
2023-02-21T01:56:04.355Z,13.29
2023-02-21T01:58:51.118Z,12.92
2023-02-21T02:01:44.528Z,13.00
2023-02-21T02:04:30.890Z,12.86
2023-02-21T02:07:18.325Z,12.94
2023-02-21T02:10:04.134Z,12.84
2023-02-21T02:12:43.731Z,13.01
2023-02-21T02:15:43.186Z,13.05
2023-02-21T02:18:23.639Z,12.70
2023-02-21T02:21:09.899Z,12.73
2023-02-21T02:24:01.478Z,12.80
2023-02-21T02:27:08.724Z,12.79
2023-02-21T02:29:50.662Z,12.03
2023-02-21T02:32:34.149Z,12.56
2023-02-21T02:35:06.773Z,12.32
2023-02-21T02:37:40.428Z,12.28
2023-02-21T02:40:14.854Z,12.24
2023-02-21T02:42:50.336Z,12.67
2023-02-21T02:45:22.815Z,12.64
2023-02-21T02:47:53.541Z,12.63
2023-02-21T02:50:24.342Z,12.67
2023-02-21T02:52:53.940Z,12.28
2023-02-21T02:55:27.842Z,12.46
2023-02-21T02:57:56.295Z,12.43
2023-02-21T03:00:24.868Z,12.30
2023-02-21T03:03:09.618Z,12.18
2023-02-21T03:05:51.007Z,12.37
2023-02-21T03:08:22.794Z,12.57
2023-02-21T03:10:57.029Z,12.24
2023-02-21T03:13:34.459Z,12.32
2023-02-21T03:16:10.044Z,11.57
2023-02-21T03:18:42.360Z,11.82
2023-02-21T03:21:18.943Z,11.52
2023-02-21T03:23:49.530Z,11.94
2023-02-21T03:26:17.590Z,11.65
2023-02-21T03:28:46.302Z,11.18
2023-02-21T03:31:15.976Z,11.14
2023-02-21T03:33:44.854Z,11.24
2023-02-21T03:36:15.746Z,11.07
2023-02-21T03:38:44.043Z,10.98
2023-02-21T03:41:14.125Z,11.43
2023-02-21T03:43:42.577Z,11.43
2023-02-21T03:46:10.822Z,10.83
2023-02-21T03:48:39.113Z,11.23
2023-02-21T03:51:07.485Z,11.10
2023-02-21T03:53:37.137Z,11.36
2023-02-21T03:56:05.987Z,11.68
2023-02-21T03:58:34.245Z,11.51
2023-02-21T04:01:03.624Z,11.47
2023-02-21T04:03:32.129Z,11.65
2023-02-21T04:06:00.475Z,11.65
2023-02-21T04:08:28.707Z,11.81
2023-02-21T04:10:58.302Z,11.63
2023-02-21T04:13:26.555Z,11.22
2023-02-21T04:15:54.816Z,11.51
2023-02-21T04:18:23.050Z,11.40
2023-02-21T04:20:51.438Z,11.49
2023-02-21T04:23:20.273Z,11.25
2023-02-21T04:25:49.148Z,11.25
2023-02-21T04:28:18.762Z,11.62
2023-02-21T04:30:47.223Z,12.02
2023-02-21T04:33:15.432Z,11.46
2023-02-21T04:35:43.885Z,11.36
2023-02-21T04:38:12.096Z,11.20
2023-02-21T04:40:40.312Z,11.30
2023-02-21T04:43:08.578Z,11.02
2023-02-21T04:45:38.178Z,11.10
2023-02-21T04:48:06.778Z,11.34
2023-02-21T04:50:35.009Z,11.02
2023-02-21T04:53:03.309Z,10.57
2023-02-21T04:55:31.549Z,10.79
2023-02-21T04:57:59.819Z,10.51
2023-02-21T05:00:28.074Z,10.47
2023-02-21T05:02:58.276Z,10.36
2023-02-21T05:05:26.648Z,10.72
2023-02-21T05:07:54.958Z,10.35
2023-02-21T05:10:25.452Z,10.48
2023-02-21T05:12:55.378Z,10.85
2023-02-21T05:15:23.816Z,10.12
2023-02-21T05:17:52.086Z,10.49
2023-02-21T05:20:21.937Z,10.19
2023-02-21T05:22:50.491Z,10.74
2023-02-21T05:25:21.102Z,10.24
2023-02-21T05:27:49.323Z,10.49
2023-02-21T05:30:19.901Z,10.45
2023-02-21T05:32:48.241Z,10.30
2023-02-21T05:35:17.574Z,10.42
2023-02-21T05:37:47.221Z,10.62
2023-02-21T05:40:16.992Z,10.52
2023-02-21T05:42:45.453Z,10.65
2023-02-21T05:45:13.756Z,11.14
2023-02-21T05:47:41.977Z,11.52
2023-02-21T05:50:10.297Z,11.43
2023-02-21T05:52:38.534Z,10.99
2023-02-21T05:55:08.674Z,10.79
2023-02-21T05:57:39.608Z,10.93
2023-02-21T06:00:14.556Z,10.91
2023-02-21T06:02:42.810Z,10.92
2023-02-21T06:05:11.999Z,11.16
2023-02-21T06:07:40.258Z,11.51
2023-02-21T06:10:10.139Z,11.63
2023-02-21T06:12:38.357Z,11.67
2023-02-21T06:15:07.501Z,11.70
2023-02-21T06:17:35.709Z,11.70
2023-02-21T06:20:04.063Z,11.71
2023-02-21T06:22:32.522Z,11.77
2023-02-21T06:25:00.982Z,11.10
2023-02-21T06:27:30.630Z,11.37
2023-02-21T06:29:58.899Z,11.49
2023-02-21T06:32:27.768Z,11.47
2023-02-21T06:34:56.058Z,11.60
2023-02-21T06:37:24.398Z,11.58
2023-02-21T06:39:52.619Z,11.73
2023-02-21T06:42:21.233Z,11.83
2023-02-21T06:44:51.031Z,11.97
2023-02-21T06:47:19.338Z,12.04
2023-02-21T06:49:47.584Z,12.16
2023-02-21T06:52:16.564Z,12.17
2023-02-21T06:54:46.025Z,11.23
2023-02-21T06:57:14.237Z,12.05
2023-02-21T06:59:42.472Z,12.16
2023-02-21T07:02:18.298Z,12.30
2023-02-21T07:04:46.951Z,12.55
2023-02-21T07:07:15.584Z,11.98
2023-02-21T07:09:44.082Z,11.63
2023-02-21T07:12:12.428Z,12.19
2023-02-21T07:14:40.813Z,12.00
2023-02-21T07:17:09.023Z,12.53
2023-02-21T07:19:38.619Z,12.61
2023-02-21T07:22:06.936Z,12.43
2023-02-21T07:24:36.691Z,12.03
2023-02-21T07:27:05.767Z,12.55
2023-02-21T07:29:34.037Z,13.16
2023-02-21T07:32:02.426Z,13.03
2023-02-21T07:34:30.649Z,12.39
2023-02-21T07:37:00.226Z,13.09
2023-02-21T07:39:28.459Z,12.01
2023-02-21T07:41:56.663Z,12.32
2023-02-21T07:44:25.005Z,12.24
2023-02-21T07:46:53.295Z,12.66
2023-02-21T07:49:21.537Z,12.48
2023-02-21T07:51:49.820Z,13.29
2023-02-21T07:54:19.763Z,12.69
2023-02-21T07:56:49.633Z,12.58
2023-02-21T07:59:17.939Z,12.43
2023-02-21T08:01:47.588Z,13.22
2023-02-21T08:04:20.394Z,12.83
2023-02-21T08:06:49.368Z,13.48
2023-02-21T08:09:18.928Z,13.34
2023-02-21T08:11:47.135Z,13.49
2023-02-21T08:14:15.351Z,13.73
2023-02-21T08:16:43.579Z,14.01
2023-02-21T08:19:11.951Z,13.40
2023-02-21T08:21:40.206Z,13.78
2023-02-21T08:24:08.579Z,13.89
2023-02-21T08:26:38.186Z,14.02
2023-02-21T08:29:06.447Z,14.53
2023-02-21T08:31:36.131Z,14.12
2023-02-21T08:34:05.160Z,14.16
2023-02-21T08:36:33.758Z,14.57
2023-02-21T08:39:02.021Z,14.82
2023-02-21T08:41:38.443Z,14.09
2023-02-21T08:44:07.195Z,14.48
2023-02-21T08:46:36.097Z,14.92
2023-02-21T08:49:05.299Z,14.53
2023-02-21T08:51:34.497Z,14.28
2023-02-21T08:54:03.360Z,14.54
2023-02-21T08:56:31.867Z,15.24
2023-02-21T08:59:02.099Z,15.32
2023-02-21T09:01:34.269Z,15.28
2023-02-21T09:04:02.640Z,15.44
2023-02-21T09:06:31.206Z,15.66
2023-02-21T09:08:59.665Z,15.29
2023-02-21T09:11:28.002Z,15.02
2023-02-21T09:13:56.268Z,15.17
2023-02-21T09:16:26.245Z,15.89
2023-02-21T09:18:56.888Z,15.83
2023-02-21T09:21:24.936Z,15.86
2023-02-21T09:23:54.911Z,16.32
2023-02-21T09:26:24.387Z,16.12
2023-02-21T09:28:53.164Z,16.90
2023-02-21T09:31:22.190Z,16.75
2023-02-21T09:33:51.907Z,16.90
2023-02-21T09:36:23.630Z,16.95
2023-02-21T09:38:51.932Z,17.19
2023-02-21T09:41:21.304Z,17.27
2023-02-21T09:43:52.631Z,17.31
2023-02-21T09:46:26.016Z,17.36
2023-02-21T09:48:55.647Z,17.91
2023-02-21T09:51:25.134Z,18.08
2023-02-21T09:53:56.211Z,17.86
2023-02-21T09:56:28.707Z,17.16
2023-02-21T09:58:58.881Z,18.07
2023-02-21T10:01:34.076Z,17.80
2023-02-21T10:04:15.034Z,17.83
2023-02-21T10:06:48.826Z,17.58
2023-02-21T10:09:25.447Z,17.89
2023-02-21T10:12:04.772Z,17.58
2023-02-21T10:14:42.177Z,18.05
2023-02-21T10:17:15.679Z,17.88
2023-02-21T10:19:49.989Z,17.87
2023-02-21T10:22:22.123Z,18.26
2023-02-21T10:24:51.032Z,18.61
2023-02-21T10:27:21.312Z,18.90
2023-02-21T10:29:52.369Z,19.20
2023-02-21T10:32:21.148Z,19.20
2023-02-21T10:34:50.867Z,18.56
2023-02-21T10:37:29.244Z,18.82
2023-02-21T10:40:02.149Z,18.91
2023-02-21T10:42:47.856Z,19.10
2023-02-21T10:45:17.927Z,18.78
2023-02-21T10:47:55.131Z,19.37
2023-02-21T10:50:44.414Z,19.49
2023-02-21T10:53:26.488Z,18.92
2023-02-21T10:56:19.959Z,19.50
2023-02-21T10:58:49.492Z,19.48
2023-02-21T11:01:21.346Z,19.23
2023-02-21T11:03:52.306Z,19.64
2023-02-21T11:06:28.420Z,19.35
2023-02-21T11:08:56.748Z,19.34
2023-02-21T11:11:37.265Z,19.00
2023-02-21T11:14:22.050Z,19.32
2023-02-21T11:17:14.524Z,19.88
2023-02-21T11:19:54.236Z,19.27
2023-02-21T11:22:26.594Z,19.09
2023-02-21T11:25:06.322Z,18.94
2023-02-21T11:27:36.679Z,19.25
2023-02-21T11:30:12.588Z,19.46
2023-02-21T11:32:42.002Z,19.62
2023-02-21T11:35:24.205Z,19.44
2023-02-21T11:37:56.527Z,19.08
2023-02-21T11:40:27.994Z,19.07
2023-02-21T11:43:22.478Z,19.29
2023-02-21T11:46:01.030Z,19.45
2023-02-21T11:48:32.977Z,20.05
2023-02-21T11:51:07.541Z,19.55
2023-02-21T11:53:41.216Z,19.80
2023-02-21T11:56:18.866Z,19.95
2023-02-21T11:58:56.519Z,19.73
2023-02-21T12:01:29.908Z,19.97
2023-02-21T12:04:44.038Z,19.85
2023-02-21T12:07:18.400Z,20.23
2023-02-21T12:09:54.295Z,20.54
2023-02-21T12:12:32.831Z,20.29
2023-02-21T12:15:07.221Z,20.44
2023-02-21T12:17:53.598Z,20.66
2023-02-21T12:20:27.287Z,21.06
2023-02-21T12:23:12.347Z,20.92
2023-02-21T12:25:53.548Z,20.69
2023-02-21T12:28:27.959Z,20.54
2023-02-21T12:31:09.588Z,21.24
2023-02-21T12:33:45.832Z,21.28
2023-02-21T12:36:36.917Z,20.88
2023-02-21T12:39:17.535Z,20.33
2023-02-21T12:41:51.274Z,20.69
2023-02-21T12:44:22.611Z,20.74
2023-02-21T12:46:54.940Z,20.26
2023-02-21T12:49:25.677Z,20.58
2023-02-21T12:51:59.127Z,20.66
2023-02-21T12:54:36.827Z,20.81
2023-02-21T12:57:09.462Z,21.03
2023-02-21T12:59:47.615Z,21.38
2023-02-21T13:02:22.014Z,21.01
2023-02-21T13:04:55.809Z,20.95
2023-02-21T13:07:26.388Z,21.90
2023-02-21T13:09:56.162Z,21.76
2023-02-21T13:12:28.286Z,22.12
2023-02-21T13:14:58.638Z,22.50
2023-02-21T13:17:27.801Z,22.17
2023-02-21T13:20:01.724Z,22.02
2023-02-21T13:23:25.199Z,21.46
2023-02-21T13:26:04.902Z,22.49
2023-02-21T13:28:36.532Z,21.82
2023-02-21T13:31:06.601Z,22.47
2023-02-21T13:33:39.462Z,22.33
2023-02-21T13:36:19.895Z,21.88
2023-02-21T13:38:48.615Z,21.96
2023-02-21T13:41:17.514Z,22.22
2023-02-21T13:43:51.300Z,22.36
2023-02-21T13:46:58.780Z,21.86
2023-02-21T13:49:48.327Z,23.01
2023-02-21T13:52:28.831Z,23.45
2023-02-21T13:55:26.244Z,22.40
2023-02-21T13:58:30.045Z,23.88
2023-02-21T14:01:18.934Z,22.26
2023-02-21T14:03:47.216Z,23.13
2023-02-21T14:06:36.569Z,23.06
2023-02-21T14:09:08.218Z,23.06
2023-02-21T14:11:39.503Z,22.56
2023-02-21T14:14:21.817Z,22.74
2023-02-21T14:16:54.799Z,23.17
2023-02-21T14:19:26.635Z,23.79
2023-02-21T14:22:02.842Z,23.45
2023-02-21T14:24:33.520Z,22.38
2023-02-21T14:27:05.301Z,21.86
2023-02-21T14:29:36.574Z,22.20
2023-02-21T14:32:27.725Z,22.44
2023-02-21T14:34:57.964Z,23.00
2023-02-21T14:37:29.546Z,23.08
2023-02-21T14:40:00.319Z,22.73
2023-02-21T14:42:36.824Z,22.44
2023-02-21T14:45:30.554Z,22.82
2023-02-21T14:48:10.126Z,22.98
2023-02-21T14:50:45.175Z,23.40
2023-02-21T14:53:40.019Z,22.92
2023-02-21T14:56:35.078Z,23.50
2023-02-21T14:59:32.055Z,23.22
2023-02-21T15:02:08.430Z,23.35
2023-02-21T15:04:44.053Z,23.72
2023-02-21T15:07:18.812Z,22.66
2023-02-21T15:09:47.547Z,22.81
2023-02-21T15:12:17.950Z,23.18
2023-02-21T15:14:49.961Z,22.49
2023-02-21T15:17:20.382Z,22.54
2023-02-21T15:20:02.809Z,22.71
2023-02-21T15:22:31.123Z,23.30
2023-02-21T15:25:13.058Z,23.97
2023-02-21T15:27:55.549Z,23.93
2023-02-21T15:30:25.869Z,23.96
2023-02-21T15:32:59.244Z,23.99
2023-02-21T15:35:34.329Z,23.80
2023-02-21T15:38:05.201Z,23.97
2023-02-21T15:40:33.591Z,23.81
2023-02-21T15:43:02.608Z,22.92
2023-02-21T15:45:32.643Z,23.21
2023-02-21T15:48:01.834Z,23.50
2023-02-21T15:50:35.487Z,23.17
2023-02-21T15:53:19.081Z,23.66
2023-02-21T15:55:48.838Z,22.96
2023-02-21T15:58:23.788Z,22.81
2023-02-21T16:01:07.233Z,23.54
2023-02-21T16:03:38.346Z,23.22
2023-02-21T16:06:20.998Z,23.28
2023-02-21T16:09:02.070Z,23.03
2023-02-21T16:11:45.459Z,22.92
2023-02-21T16:14:23.855Z,23.06
2023-02-21T16:16:56.198Z,22.66
2023-02-21T16:19:24.803Z,22.42
2023-02-21T16:22:12.811Z,22.38
2023-02-21T16:24:41.723Z,22.39
2023-02-21T16:27:12.881Z,22.26
2023-02-21T16:29:41.146Z,22.28
2023-02-21T16:32:17.417Z,22.23
2023-02-21T16:34:45.707Z,21.80
2023-02-21T16:37:15.894Z,21.84
2023-02-21T16:39:44.453Z,21.49
2023-02-21T16:42:12.732Z,21.50
2023-02-21T16:44:41.074Z,21.37
2023-02-21T16:47:09.429Z,21.32
2023-02-21T16:49:37.637Z,21.25
2023-02-21T16:52:06.125Z,20.96
2023-02-21T16:54:35.687Z,21.02
2023-02-21T16:57:03.954Z,21.07
2023-02-21T16:59:32.251Z,20.85
2023-02-21T17:02:01.344Z,20.92
2023-02-21T17:04:29.765Z,20.83
2023-02-21T17:06:59.611Z,20.74
2023-02-21T17:09:29.472Z,20.62
2023-02-21T17:12:00.143Z,20.52
2023-02-21T17:14:28.210Z,20.31
2023-02-21T17:16:59.128Z,20.15
2023-02-21T17:19:27.328Z,20.02
2023-02-21T17:21:58.123Z,19.80
2023-02-21T17:24:26.367Z,19.68
2023-02-21T17:26:54.968Z,19.44
2023-02-21T17:29:25.515Z,19.40
2023-02-21T17:31:54.463Z,19.16
2023-02-21T17:34:22.964Z,18.90
2023-02-21T17:36:51.770Z,18.77
2023-02-21T17:39:20.470Z,18.68
2023-02-21T17:41:49.222Z,18.62
2023-02-21T17:44:19.000Z,18.54
2023-02-21T17:46:49.472Z,18.40
2023-02-21T17:49:18.824Z,18.31
2023-02-21T17:51:49.199Z,18.18
2023-02-21T17:54:19.398Z,18.09
2023-02-21T17:56:47.743Z,17.85
2023-02-21T17:59:16.572Z,17.11
2023-02-21T18:01:44.994Z,17.28
2023-02-21T18:04:15.210Z,17.37
2023-02-21T18:06:43.687Z,17.37
2023-02-21T18:09:12.097Z,17.34
2023-02-21T18:11:40.354Z,17.32
2023-02-21T18:14:08.575Z,17.22
2023-02-21T18:16:36.838Z,17.07
2023-02-21T18:19:05.095Z,16.94
2023-02-21T18:21:34.951Z,16.85
2023-02-21T18:24:03.539Z,16.79
2023-02-21T18:26:31.765Z,16.65
2023-02-21T18:29:00.007Z,16.27
2023-02-21T18:31:28.289Z,16.24
2023-02-21T18:33:56.570Z,16.28
2023-02-21T18:36:26.529Z,16.24
2023-02-21T18:38:56.375Z,15.79
2023-02-21T18:41:24.598Z,15.93
2023-02-21T18:43:53.378Z,15.81
2023-02-21T18:46:23.835Z,15.91
2023-02-21T18:48:52.346Z,15.88
2023-02-21T18:51:21.370Z,15.83
2023-02-21T18:53:50.481Z,15.79
2023-02-21T18:56:21.147Z,15.47
2023-02-21T18:58:49.535Z,15.63
2023-02-21T19:01:19.633Z,15.58
2023-02-21T19:03:48.238Z,15.54
2023-02-21T19:06:18.070Z,14.47
2023-02-21T19:08:46.844Z,14.82
2023-02-21T19:11:15.845Z,15.01
2023-02-21T19:13:47.391Z,15.18
2023-02-21T19:16:15.816Z,15.07
2023-02-21T19:18:44.122Z,15.13
2023-02-21T19:21:12.973Z,15.12
2023-02-21T19:23:41.352Z,14.40
2023-02-21T19:26:09.607Z,14.56
2023-02-21T19:28:39.964Z,14.62
2023-02-21T19:31:10.738Z,14.69
2023-02-21T19:33:40.088Z,14.75
2023-02-21T19:36:09.891Z,14.61
2023-02-21T19:38:38.312Z,14.68
2023-02-21T19:41:07.457Z,14.71
2023-02-21T19:43:36.012Z,14.66
2023-02-21T19:46:04.483Z,14.64
2023-02-21T19:48:34.151Z,14.70
2023-02-21T19:51:02.384Z,14.64
2023-02-21T19:53:30.628Z,14.51
2023-02-21T19:55:58.837Z,14.53
2023-02-21T19:58:27.056Z,14.52
2023-02-21T20:00:55.413Z,13.78
2023-02-21T20:03:23.749Z,14.32
2023-02-21T20:05:53.753Z,13.87
2023-02-21T20:08:22.103Z,14.30
2023-02-21T20:10:50.905Z,14.29
2023-02-21T20:13:20.223Z,14.41
2023-02-21T20:15:50.726Z,14.39
2023-02-21T20:18:19.008Z,14.52
2023-02-21T20:20:49.557Z,14.54
2023-02-21T20:23:19.221Z,14.57
2023-02-21T20:25:47.805Z,14.57
2023-02-21T20:28:16.101Z,14.39
2023-02-21T20:30:44.570Z,14.31
2023-02-21T20:33:12.901Z,14.20
2023-02-21T20:35:41.228Z,14.15
2023-02-21T20:38:10.827Z,14.08
2023-02-21T20:40:40.507Z,14.12
2023-02-21T20:43:08.768Z,13.40
2023-02-21T20:45:38.481Z,13.90
2023-02-21T20:48:08.906Z,13.91
2023-02-21T20:50:37.182Z,13.87
2023-02-21T20:53:05.798Z,13.82
2023-02-21T20:55:37.297Z,13.54
2023-02-21T20:58:07.150Z,13.34
2023-02-21T21:00:37.743Z,13.30
2023-02-21T21:03:06.676Z,13.32
2023-02-21T21:05:34.877Z,13.26
2023-02-21T21:08:03.195Z,13.26
2023-02-21T21:10:31.464Z,12.77
2023-02-21T21:12:59.826Z,12.42
2023-02-21T21:15:29.937Z,12.08
2023-02-21T21:17:58.293Z,12.54
2023-02-21T21:20:27.112Z,12.77
2023-02-21T21:22:55.423Z,12.85
2023-02-21T21:25:23.720Z,12.87
2023-02-21T21:27:51.994Z,12.92
2023-02-21T21:30:23.344Z,12.83
2023-02-21T21:32:53.031Z,12.39
2023-02-21T21:35:22.099Z,12.66
2023-02-21T21:37:50.813Z,12.50
2023-02-21T21:40:19.404Z,12.18
2023-02-21T21:42:49.966Z,12.53
2023-02-21T21:45:19.596Z,12.65
2023-02-21T21:47:48.598Z,12.40
2023-02-21T21:50:19.232Z,12.24
2023-02-21T21:52:51.323Z,11.69
2023-02-21T21:55:21.993Z,11.87
2023-02-21T21:57:53.359Z,12.14
2023-02-21T22:00:23.777Z,11.81
2023-02-21T22:02:57.147Z,11.31
2023-02-21T22:05:27.661Z,11.16
2023-02-21T22:07:56.587Z,11.59
2023-02-21T22:10:26.041Z,11.38
2023-02-21T22:12:56.561Z,11.60
2023-02-21T22:15:25.453Z,11.21
2023-02-21T22:17:54.130Z,11.45
2023-02-21T22:20:28.420Z,10.52
2023-02-21T22:22:59.036Z,9.88
2023-02-21T22:25:30.161Z,10.05
2023-02-21T22:28:00.537Z,11.09
2023-02-21T22:30:28.894Z,11.09
2023-02-21T22:32:57.184Z,11.38
2023-02-21T22:35:25.611Z,11.51
2023-02-21T22:37:55.852Z,11.48
2023-02-21T22:40:28.027Z,11.56
2023-02-21T22:42:59.317Z,11.56
2023-02-21T22:45:28.963Z,11.58
2023-02-21T22:47:57.731Z,11.48
2023-02-21T22:50:27.112Z,11.58
2023-02-21T22:52:57.642Z,11.49
2023-02-21T22:55:29.732Z,10.99
2023-02-21T22:57:59.719Z,11.05
2023-02-21T23:00:33.272Z,11.43
2023-02-21T23:03:02.621Z,11.26
2023-02-21T23:05:31.428Z,11.37
2023-02-21T23:07:59.709Z,11.36
2023-02-21T23:10:29.651Z,11.30
2023-02-21T23:13:00.009Z,11.36
2023-02-21T23:15:28.883Z,11.32
2023-02-21T23:17:57.175Z,10.87
2023-02-21T23:20:29.223Z,10.89
2023-02-21T23:22:58.947Z,10.68
2023-02-21T23:25:35.077Z,10.52
2023-02-21T23:28:06.878Z,10.64
2023-02-21T23:30:42.112Z,10.56
2023-02-21T23:33:14.480Z,10.73
2023-02-21T23:35:43.320Z,10.80
2023-02-21T23:38:15.556Z,10.86
2023-02-21T23:40:46.776Z,10.61
2023-02-21T23:43:16.862Z,10.70
2023-02-21T23:45:48.217Z,10.47
2023-02-21T23:48:16.545Z,10.28
2023-02-21T23:50:46.520Z,10.47
2023-02-21T23:53:16.546Z,10.45
2023-02-21T23:55:47.150Z,10.51
2023-02-21T23:58:17.159Z,10.48
